Time;durP1;ratioP1;P1;durP2;ratioP2;P2;SDS_P1;SDS_P2;PMS_P1;PMS_P2;Temp;Humidity;BMP_temperature;BMP_pressure;BME280_temperature;BME280_humidity;BME280_pressure;Samples;Min_cycle;Max_cycle;Signal;HPM_P1;HPM_P2
2023/02/20 00:01:04;;;;;;;8.40;4.40;;;;;;;4.33;100.00;101998.69;10376677;28;20054;-67
2023/02/20 00:06:00;;;;;;;9.65;4.45;;;;;;;4.37;100.00;101986.31;10366723;27;20500;-67
2023/02/20 00:10:57;;;;;;;9.52;4.22;;;;;;;4.35;100.00;101983.84;10341582;28;20493;-70
2023/02/20 00:15:53;;;;;;;6.38;4.28;;;;;;;4.32;100.00;101962.66;10373792;28;20040;-69
2023/02/20 00:20:50;;;;;;;8.50;4.13;;;;;;;4.34;100.00;101960.53;10357613;28;20044;-69
2023/02/20 00:25:46;;;;;;;8.75;4.40;;;;;;;4.36;100.00;101936.75;10385053;27;20386;-69
2023/02/20 00:30:42;;;;;;;11.27;4.85;;;;;;;4.35;100.00;101916.13;10372513;28;20051;-69
2023/02/20 00:35:39;;;;;;;9.82;5.50;;;;;;;4.36;100.00;101908.81;10374255;28;20835;-67
2023/02/20 00:40:35;;;;;;;11.52;4.47;;;;;;;4.39;100.00;101881.28;10344098;28;20063;-69
2023/02/20 00:45:32;;;;;;;7.32;5.00;;;;;;;4.46;100.00;101870.28;10380391;27;20676;-67
2023/02/20 00:50:28;;;;;;;10.32;5.20;;;;;;;4.46;100.00;101854.84;10342226;28;20050;-68
2023/02/20 00:55:25;;;;;;;9.70;5.28;;;;;;;4.46;100.00;101848.59;10376435;27;20058;-68
2023/02/20 01:00:25;;;;;;;7.85;4.53;;;;;;;4.49;100.00;101821.00;10329505;28;20159;-68
2023/02/20 01:05:22;;;;;;;8.43;4.97;;;;;;;4.48;100.00;101835.59;10336395;28;20093;-67
2023/02/20 01:10:19;;;;;;;9.07;5.80;;;;;;;4.50;100.00;101838.88;10376715;27;20455;-67
2023/02/20 01:15:15;;;;;;;8.20;4.88;;;;;;;4.56;100.00;101835.19;10339960;28;20138;-68
2023/02/20 01:20:12;;;;;;;6.20;4.85;;;;;;;4.58;100.00;101841.19;10376419;28;20043;-67
2023/02/20 01:25:08;;;;;;;7.20;4.70;;;;;;;4.63;100.00;101819.56;10332828;28;20052;-69
2023/02/20 01:30:06;;;;;;;6.75;4.97;;;;;;;4.67;100.00;101807.19;10339881;28;20160;-67
2023/02/20 01:35:02;;;;;;;7.68;5.15;;;;;;;4.66;100.00;101829.91;10388327;27;20070;-67
2023/02/20 01:39:59;;;;;;;8.95;4.68;;;;;;;4.70;100.00;101795.00;10385005;28;20508;-67
2023/02/20 01:45:33;;;;;;;13.10;5.18;;;;;;;4.78;100.00;101791.84;10335901;28;20127;-67
2023/02/20 01:50:41;;;;;;;5.95;4.68;;;;;;;4.80;100.00;101785.13;10330998;28;20044;-68
2023/02/20 01:55:57;;;;;;;6.05;4.65;;;;;;;4.78;100.00;101771.00;10331928;28;20051;-67
2023/02/20 02:00:57;;;;;;;9.93;4.82;;;;;;;4.79;100.00;101755.56;10340955;28;20108;-68
2023/02/20 02:06:00;;;;;;;8.95;6.22;;;;;;;4.83;100.00;101730.41;11432774;22;20065;-69
2023/02/20 02:11:26;;;;;;;8.13;5.03;;;;;;;4.86;100.00;101707.41;10206858;28;20410;-69
2023/02/20 02:16:39;;;;;;;9.35;5.40;;;;;;;4.96;100.00;101718.34;10210831;28;20053;-68
2023/02/20 02:21:41;;;;;;;9.95;5.25;;;;;;;5.00;100.00;101696.97;10229015;28;20136;-68
2023/02/20 02:27:29;;;;;;;8.10;5.32;;;;;;;5.07;100.00;101697.59;10212665;28;20515;-68
2023/02/20 02:33:10;;;;;;;9.73;6.00;;;;;;;5.09;100.00;101695.44;10207609;28;20068;-68
2023/02/20 02:38:18;;;;;;;9.23;6.25;;;;;;;5.06;100.00;101704.91;10099791;28;20648;-68
2023/02/20 02:43:24;;;;;;;9.10;5.82;;;;;;;5.10;100.00;101740.44;10197851;28;20072;-68
2023/02/20 02:48:46;;;;;;;8.00;6.20;;;;;;;5.03;100.00;101697.28;10213416;28;20083;-69
2023/02/20 02:54:10;;;;;;;10.60;6.30;;;;;;;4.96;100.00;101690.44;10210020;28;20458;-69
2023/02/20 02:59:11;;;;;;;9.43;7.22;;;;;;;4.84;100.00;101677.84;10223545;28;20049;-70
2023/02/20 03:04:11;;;;;;;10.57;7.97;;;;;;;4.77;100.00;101665.59;10222325;28;20056;-67
2023/02/20 03:09:12;;;;;;;12.80;8.45;;;;;;;4.76;100.00;101674.81;10221247;28;20088;-70
2023/02/20 03:19:51;;;;;;;12.38;9.02;;;;;;;4.76;100.00;101667.47;10225691;28;20665;-70
2023/02/20 03:24:56;;;;;;;10.65;9.60;;;;;;;4.82;100.00;101669.16;10219575;28;20474;-69
2023/02/20 03:29:57;;;;;;;10.05;9.02;;;;;;;4.90;100.00;101665.19;10219145;28;20052;-70
2023/02/20 03:45:31;;;;;;;9.38;8.25;;;;;;;4.92;100.00;101641.34;10212552;28;20069;-68
2023/02/20 03:50:28;;;;;;;11.43;8.93;;;;;;;4.96;100.00;101630.81;10207769;28;20091;-68
2023/02/20 03:55:25;;;;;;;13.95;9.23;;;;;;;5.06;100.00;101636.34;10210203;28;20395;-68
2023/02/20 04:00:26;;;;;;;11.00;8.65;;;;;;;5.16;100.00;101652.66;10229666;28;20129;-68
2023/02/20 04:05:25;;;;;;;9.13;7.97;;;;;;;5.14;100.00;101638.56;10214726;28;20041;-68
2023/02/20 04:10:26;;;;;;;11.27;9.07;;;;;;;5.18;100.00;101636.97;10211768;28;20069;-68
2023/02/20 04:15:24;;;;;;;12.63;9.93;;;;;;;5.16;100.00;101609.28;10204867;28;20042;-70
2023/02/20 04:20:22;;;;;;;10.73;9.65;;;;;;;5.12;100.00;101597.31;10205206;28;20466;-69
2023/02/20 04:25:35;;;;;;;10.32;9.23;;;;;;;5.07;100.00;101586.44;10210861;28;20045;-69
2023/02/20 04:30:31;;;;;;;10.32;9.32;;;;;;;5.14;100.00;101583.53;10186602;28;20054;-68
2023/02/20 04:35:28;;;;;;;12.25;9.02;;;;;;;5.19;100.00;101567.28;10201622;28;20784;-68
2023/02/20 04:40:25;;;;;;;11.57;10.38;;;;;;;5.26;100.00;101557.03;10218059;28;20042;-68
2023/02/20 04:45:24;;;;;;;11.35;10.10;;;;;;;5.26;100.00;101541.56;10208303;28;20135;-68
2023/02/20 04:50:25;;;;;;;13.82;10.68;;;;;;;5.27;100.00;101524.22;10205847;28;20147;-68
2023/02/20 04:55:21;;;;;;;14.20;10.90;;;;;;;5.21;100.00;101530.69;10210125;28;20705;-68
2023/02/20 05:00:19;;;;;;;13.40;11.93;;;;;;;5.30;100.00;101513.94;10206792;28;20487;-67
2023/02/20 05:05:22;;;;;;;11.95;10.75;;;;;;;5.27;100.00;101537.78;10206342;28;20049;-69
2023/02/20 05:10:21;;;;;;;12.27;11.02;;;;;;;5.31;100.00;101550.81;10211432;28;20041;-69
2023/02/20 05:15:18;;;;;;;13.57;12.13;;;;;;;5.33;100.00;101532.38;10220374;28;20136;-69
2023/02/20 05:20:16;;;;;;;17.67;12.57;;;;;;;5.37;100.00;101519.94;10207324;28;20133;-67
2023/02/20 05:25:14;;;;;;;16.25;12.77;;;;;;;5.38;100.00;101510.72;10221087;28;20123;-68
2023/02/20 05:30:11;;;;;;;15.95;12.88;;;;;;;5.38;100.00;101502.59;10217125;28;20058;-69
2023/02/20 05:35:07;;;;;;;16.45;12.75;;;;;;;5.36;100.00;101488.47;10214053;28;20161;-69
2023/02/20 05:40:04;;;;;;;18.75;13.15;;;;;;;5.39;100.00;101471.69;10218751;28;20142;-70
2023/02/20 05:45:03;;;;;;;15.18;12.57;;;;;;;5.41;100.00;101461.41;10221178;28;20134;-69
2023/02/20 05:49:59;;;;;;;15.13;13.52;;;;;;;5.42;100.00;101465.72;10207401;28;20145;-69
2023/02/20 05:54:56;;;;;;;17.10;13.82;;;;;;;5.43;100.00;101443.78;10204618;28;20138;-70
2023/02/20 05:59:52;;;;;;;17.13;14.70;;;;;;;5.51;100.00;101437.00;10203657;28;20131;-69
2023/02/20 06:04:49;;;;;;;17.75;14.07;;;;;;;5.47;100.00;101442.13;10218561;28;20570;-70
2023/02/20 06:09:45;;;;;;;20.08;15.50;;;;;;;5.47;100.00;101419.63;10212563;28;20042;-69
2023/02/20 06:14:42;;;;;;;18.33;15.55;;;;;;;5.44;100.00;101406.63;10215167;28;20041;-69
2023/02/20 06:19:39;;;;;;;22.92;15.25;;;;;;;5.48;100.00;101421.28;10225387;28;20051;-69
2023/02/20 06:24:36;;;;;;;19.92;15.65;;;;;;;5.48;100.00;101421.28;10203624;28;20264;-69
2023/02/20 06:29:32;;;;;;;19.15;16.63;;;;;;;5.52;100.00;101427.78;10200641;28;20052;-69
2023/02/20 06:34:32;;;;;;;25.02;18.33;;;;;;;5.44;100.00;101412.03;10214917;28;20056;-69
2023/02/20 06:39:29;;;;;;;24.10;16.38;;;;;;;5.51;100.00;101431.59;10207578;28;20050;-69
2023/02/20 06:44:26;;;;;;;18.75;15.35;;;;;;;5.65;100.00;101438.13;10211429;28;20545;-69
2023/02/20 06:49:22;;;;;;;19.15;16.67;;;;;;;5.72;100.00;101432.47;10225353;28;20488;-69
2023/02/20 06:54:21;;;;;;;23.92;17.23;;;;;;;5.79;100.00;101427.59;10211936;28;20127;-69
2023/02/20 06:59:17;;;;;;;19.67;17.05;;;;;;;5.84;100.00;101424.88;10217667;28;20072;-69
2023/02/20 07:04:15;;;;;;;22.13;17.30;;;;;;;5.90;100.00;101428.44;10218169;28;20091;-69
2023/02/20 07:09:13;;;;;;;25.85;17.77;;;;;;;5.94;100.00;101435.00;10215244;28;20084;-69
2023/02/20 07:14:09;;;;;;;24.70;19.08;;;;;;;5.98;100.00;101438.78;10216028;28;20045;-70
2023/02/20 07:19:06;;;;;;;27.02;18.30;;;;;;;6.01;100.00;101435.53;10213936;28;20494;-69
2023/02/20 07:24:03;;;;;;;22.33;16.90;;;;;;;6.07;100.00;101445.31;10223638;28;20513;-70
2023/02/20 07:28:59;;;;;;;23.52;19.05;;;;;;;6.05;100.00;101433.91;10215109;28;20542;-69
2023/02/20 07:33:57;;;;;;;24.55;19.88;;;;;;;6.08;100.00;101436.09;10214804;28;20052;-69
2023/02/20 07:38:58;;;;;;;30.25;21.23;;;;;;;6.13;100.00;101431.72;10217196;28;20052;-69
2023/02/20 07:43:55;;;;;;;25.83;21.23;;;;;;;6.14;100.00;101411.66;10218639;28;20049;-69
2023/02/20 07:48:52;;;;;;;30.05;19.25;;;;;;;6.14;100.00;101412.47;10207383;28;20049;-69
2023/02/20 07:53:50;;;;;;;27.13;21.58;;;;;;;6.17;100.00;101405.66;10216273;28;20882;-69
2023/02/20 07:58:47;;;;;;;31.38;22.35;;;;;;;6.20;100.00;101399.72;10210312;28;20504;-69
2023/02/20 08:03:43;;;;;;;26.58;21.88;;;;;;;6.21;100.00;101404.06;10213477;28;20419;-69
2023/02/20 08:08:40;;;;;;;29.58;22.35;;;;;;;6.21;100.00;101390.47;10213286;28;20049;-69
2023/02/20 08:13:37;;;;;;;36.78;25.13;;;;;;;6.26;100.00;101379.59;10217063;28;20057;-69
2023/02/20 08:18:33;;;;;;;29.13;23.92;;;;;;;6.29;100.00;101365.50;10204421;28;20049;-69
2023/02/20 08:23:30;;;;;;;30.02;23.02;;;;;;;6.29;100.00;101382.59;10203665;28;20083;-69
2023/02/20 08:28:26;;;;;;;32.63;26.70;;;;;;;6.33;100.00;101388.28;10201711;28;20041;-70
2023/02/20 08:33:23;;;;;;;39.65;24.83;;;;;;;6.36;100.00;101366.03;10209297;28;20108;-69
2023/02/20 08:38:28;;;;;;;39.63;24.02;;;;;;;6.36;100.00;101365.19;10216499;28;20080;-70
2023/02/20 08:43:25;;;;;;;30.77;24.88;;;;;;;6.39;100.00;101365.47;10217448;28;20092;-69
2023/02/20 08:48:24;;;;;;;34.00;23.88;;;;;;;6.40;100.00;101345.38;10205960;28;20133;-69
2023/02/20 08:53:20;;;;;;;38.38;27.40;;;;;;;6.46;100.00;101349.72;10191808;28;20515;-69
2023/02/20 08:58:22;;;;;;;33.40;26.00;;;;;;;6.45;100.00;101348.09;10215565;28;20115;-69
2023/02/20 09:03:19;;;;;;;41.95;29.98;;;;;;;6.41;100.00;101341.56;10214245;28;20069;-69
2023/02/20 09:08:16;;;;;;;40.25;29.00;;;;;;;6.43;100.00;101328.53;10220725;28;20130;-69
2023/02/20 09:13:13;;;;;;;36.78;28.73;;;;;;;6.41;100.00;101319.84;10211360;28;20052;-69
2023/02/20 09:18:12;;;;;;;42.20;27.92;;;;;;;6.39;100.00;101316.59;10204498;28;20076;-69
2023/02/20 09:23:09;;;;;;;43.33;27.23;;;;;;;6.41;100.00;101330.72;10212255;28;20042;-70
2023/02/20 09:28:07;;;;;;;38.03;27.52;;;;;;;6.43;100.00;101323.09;10213708;28;20048;-69
2023/02/20 09:33:04;;;;;;;35.65;25.27;;;;;;;6.45;100.00;101331.78;10212047;28;20495;-70
2023/02/20 09:38:01;;;;;;;46.60;28.98;;;;;;;6.47;100.00;101328.78;10222577;28;20048;-69
2023/02/20 09:43:28;;;;;;;36.97;24.00;;;;;;;6.47;100.00;101329.59;10211373;28;20088;-69
2023/02/20 09:48:46;;;;;;;45.20;28.67;;;;;;;6.49;100.00;101321.97;10199753;28;20154;-69
2023/02/20 09:53:49;;;;;;;41.30;29.10;;;;;;;6.54;100.00;101307.56;10211742;28;20046;-69
2023/02/20 09:59:01;;;;;;;41.63;24.85;;;;;;;6.60;100.00;101294.81;10201453;28;20056;-69
2023/02/20 10:04:10;;;;;;;41.58;27.08;;;;;;;6.65;100.00;101305.66;10207725;28;20627;-70
2023/02/20 10:09:11;;;;;;;55.10;28.33;;;;;;;6.72;100.00;101308.88;10218002;28;20679;-69
2023/02/20 10:14:23;;;;;;;31.90;24.07;;;;;;;6.79;100.00;101306.69;10214020;28;20115;-70
2023/02/20 10:19:25;;;;;;;34.40;24.90;;;;;;;6.93;100.00;101312.34;10215933;28;20046;-69
2023/02/20 10:24:48;;;;;;;40.72;23.77;;;;;;;7.01;100.00;101305.50;10225761;28;20060;-69
2023/02/20 10:29:45;;;;;;;34.00;22.90;;;;;;;7.13;100.00;101295.13;10219145;28;20487;-69
2023/02/20 10:34:52;;;;;;;33.03;22.23;;;;;;;7.32;100.00;101293.34;10224877;28;21042;-69
2023/02/20 10:39:56;;;;;;;24.23;21.30;;;;;;;7.44;100.00;101297.63;10219688;28;20092;-69
2023/02/20 10:45:02;;;;;;;26.30;20.73;;;;;;;7.56;100.00;101282.56;10217680;28;20116;-70
2023/02/20 10:50:04;;;;;;;24.33;18.15;;;;;;;7.63;100.00;101287.69;10226028;28;20055;-69
2023/02/20 10:55:25;;;;;;;26.80;20.80;;;;;;;7.64;100.00;101275.72;10225262;28;20046;-69
2023/02/20 11:00:27;;;;;;;28.05;18.83;;;;;;;7.74;100.00;101264.75;10221703;28;20045;-69
2023/02/20 11:05:29;;;;;;;23.98;18.20;;;;;;;7.80;100.00;101282.66;10217581;28;20056;-69
2023/02/20 11:10:29;;;;;;;28.58;18.63;;;;;;;7.83;100.00;101266.88;10218736;28;20049;-69
2023/02/20 11:15:29;;;;;;;20.73;15.95;;;;;;;7.85;100.00;101294.63;10213713;28;20100;-69
2023/02/20 11:20:31;;;;;;;18.40;15.63;;;;;;;7.93;100.00;101280.38;10219291;28;20046;-69
2023/02/20 11:25:34;;;;;;;17.13;15.15;;;;;;;7.97;100.00;101273.28;10231072;28;20065;-69
2023/02/20 11:30:34;;;;;;;18.27;14.63;;;;;;;8.01;100.00;101279.78;10217367;28;20502;-69
2023/02/20 11:35:34;;;;;;;20.23;14.27;;;;;;;8.06;100.00;101249.75;10204596;28;20457;-69
2023/02/20 11:40:31;;;;;;;19.80;14.55;;;;;;;8.17;100.00;101251.28;10205680;28;20095;-69
2023/02/20 11:45:28;;;;;;;15.85;13.75;;;;;;;8.26;100.00;101242.47;10222136;28;20048;-69
2023/02/20 11:50:37;;;;;;;14.70;12.57;;;;;;;8.31;100.00;101243.25;10207870;28;20124;-69
2023/02/20 11:55:34;;;;;;;14.60;12.43;;;;;;;8.39;100.00;101214.53;10207250;28;20079;-69
2023/02/20 12:00:48;;;;;;;16.95;11.63;;;;;;;8.50;100.00;101199.72;10212275;28;20078;-69
2023/02/20 12:05:47;;;;;;;13.38;11.82;;;;;;;8.53;100.00;101198.31;10211426;28;20477;-69
2023/02/20 12:10:47;;;;;;;15.60;10.82;;;;;;;8.60;100.00;101185.94;10222167;28;20049;-69
2023/02/20 12:15:53;;;;;;;14.85;11.70;;;;;;;8.61;100.00;101190.31;10213547;28;20083;-70
2023/02/20 12:21:05;;;;;;;13.73;10.63;;;;;;;8.66;100.00;101191.31;10206024;28;20568;-69
2023/02/20 12:26:29;;;;;;;11.95;9.98;;;;;;;8.68;100.00;101189.13;10214259;28;20120;-69
2023/02/20 12:31:45;;;;;;;16.33;10.68;;;;;;;8.68;100.00;101189.13;10222010;28;20047;-70
2023/02/20 12:36:46;;;;;;;15.32;9.40;;;;;;;8.69;100.00;101168.94;10216699;28;20124;-69
2023/02/20 12:42:02;;;;;;;13.23;8.88;;;;;;;8.75;100.00;101184.09;10225818;28;20049;-71
2023/02/20 12:47:13;;;;;;;11.20;9.20;;;;;;;8.77;100.00;101192.81;10212526;28;20172;-70
2023/02/20 12:52:47;;;;;;;16.52;8.98;;;;;;;8.77;100.00;101160.09;10223293;28;20053;-70
2023/02/20 12:58:12;;;;;;;11.33;9.13;;;;;;;8.79;100.00;101160.59;10218973;28;20080;-70
2023/02/20 13:03:29;;;;;;;13.55;9.50;;;;;;;8.81;100.00;101166.59;10206899;28;20397;-70
2023/02/20 13:08:32;;;;;;;13.10;9.18;;;;;;;8.84;100.00;101171.44;10206857;28;20045;-70
2023/02/20 13:13:51;;;;;;;11.60;8.63;;;;;;;8.88;100.00;101167.03;10216087;28;20559;-70
2023/02/20 13:19:11;;;;;;;9.98;8.98;;;;;;;8.91;100.00;101166.44;10198201;28;20046;-70
2023/02/20 13:24:20;;;;;;;14.68;8.85;;;;;;;8.93;100.00;101163.41;10199877;28;20435;-69
2023/02/20 13:29:26;;;;;;;15.68;9.93;;;;;;;8.91;100.00;101166.44;10204991;28;20124;-70
2023/02/20 13:34:37;;;;;;;11.98;9.40;;;;;;;8.90;100.00;101175.72;10208224;28;20045;-70
2023/02/20 13:39:36;;;;;;;16.63;9.43;;;;;;;8.92;100.00;101168.06;10214235;28;20048;-70
2023/02/20 13:44:35;;;;;;;15.80;8.23;;;;;;;8.93;100.00;101158.75;10219678;28;20041;-70
2023/02/20 13:49:50;;;;;;;9.43;8.52;;;;;;;8.92;100.00;101148.97;10209983;28;20037;-70
2023/02/20 13:54:46;;;;;;;13.85;11.05;;;;;;;8.90;100.00;101173.00;10227367;28;20053;-70
2023/02/20 13:59:43;;;;;;;13.13;10.43;;;;;;;8.89;100.00;101155.03;10219284;28;20083;-70
2023/02/20 14:04:51;;;;;;;12.27;10.52;;;;;;;8.90;100.00;101148.44;10222995;28;20042;-70
2023/02/20 14:09:59;;;;;;;10.73;9.43;;;;;;;8.90;100.00;101153.91;10220712;28;20045;-70
2023/02/20 14:14:56;;;;;;;15.70;9.38;;;;;;;8.90;100.00;101153.91;10212536;28;20451;-70
2023/02/20 14:19:56;;;;;;;13.25;9.90;;;;;;;8.90;100.00;101143.00;10219625;28;20575;-70
2023/02/20 14:25:11;;;;;;;12.10;9.20;;;;;;;8.91;100.00;101155.53;10213588;28;20791;-70
2023/02/20 14:30:13;;;;;;;17.70;10.30;;;;;;;8.94;100.00;101144.03;10230802;28;20715;-70
2023/02/20 14:35:24;;;;;;;13.32;10.30;;;;;;;8.95;100.00;101144.84;10227088;28;20446;-69
2023/02/20 14:40:35;;;;;;;11.88;9.90;;;;;;;8.88;100.00;101150.66;10230831;28;20132;-70
2023/02/20 14:45:32;;;;;;;16.50;11.30;;;;;;;8.89;100.00;101178.72;10228439;28;20396;-70
2023/02/20 14:50:34;;;;;;;14.60;11.02;;;;;;;8.76;100.00;101153.03;10219285;28;20419;-70
2023/02/20 14:55:31;;;;;;;13.60;11.35;;;;;;;8.78;100.00;101156.28;10221724;28;20052;-69
2023/02/20 15:00:38;;;;;;;13.10;10.40;;;;;;;8.88;100.00;101139.75;10222356;28;20490;-69
2023/02/20 15:05:34;;;;;;;14.73;10.48;;;;;;;8.94;100.00;101174.03;10223381;28;20042;-70
2023/02/20 15:10:36;;;;;;;15.85;11.07;;;;;;;8.86;100.00;101163.78;10227504;28;20071;-69
2023/02/20 15:15:38;;;;;;;15.55;13.88;;;;;;;8.78;100.00;101162.53;10221636;28;20041;-69
2023/02/20 15:20:39;;;;;;;14.38;10.68;;;;;;;8.88;100.00;101169.75;10217822;28;20705;-70
2023/02/20 15:25:35;;;;;;;13.07;11.77;;;;;;;8.70;100.00;101181.47;10218129;28;20095;-69
2023/02/20 15:30:32;;;;;;;16.38;14.05;;;;;;;8.38;100.00;101181.03;10229050;28;20041;-69
2023/02/20 15:35:31;;;;;;;17.48;13.88;;;;;;;8.19;100.00;101210.13;10219780;28;20050;-70
2023/02/20 15:40:32;;;;;;;19.23;12.57;;;;;;;8.09;100.00;101200.16;10213346;28;20046;-70
2023/02/20 15:45:30;;;;;;;14.43;9.98;;;;;;;8.05;100.00;101218.16;10198478;28;20081;-69
2023/02/20 15:50:26;;;;;;;19.75;10.40;;;;;;;7.99;100.00;101205.72;10225389;28;20129;-69
2023/02/20 15:55:23;;;;;;;16.33;10.23;;;;;;;7.97;100.00;101207.91;10218857;28;20410;-69
2023/02/20 16:00:24;;;;;;;18.25;9.73;;;;;;;7.93;100.00;101206.88;10232223;28;20480;-69
2023/02/20 16:05:21;;;;;;;12.10;8.63;;;;;;;7.89;100.00;101200.34;10224768;28;20049;-69
2023/02/20 16:10:23;;;;;;;15.63;9.00;;;;;;;7.88;100.00;101220.53;10208090;28;20128;-69
2023/02/20 16:15:24;;;;;;;11.07;8.75;;;;;;;7.87;100.00;101194.41;10216029;28;20144;-68
2023/02/20 16:20:26;;;;;;;13.10;7.75;;;;;;;7.88;100.00;101198.75;10225027;28;20052;-68
2023/02/20 16:25:23;;;;;;;;;;;;;;;7.87;100.00;101202.59;10213066;28;20088;-69
2023/02/20 16:30:29;;;;;;;12.02;7.47;;;;;;;7.86;100.00;101200.94;10225391;28;20414;-70
2023/02/20 16:35:29;;;;;;;13.90;8.48;;;;;;;7.85;100.00;101204.78;10216685;28;20609;-70
2023/02/20 16:40:25;;;;;;;15.45;8.70;;;;;;;7.80;100.00;101209.16;10205783;28;20073;-68
2023/02/20 16:45:22;;;;;;;13.20;8.30;;;;;;;7.79;100.00;101204.81;10206012;28;20084;-69
2023/02/20 16:50:28;;;;;;;13.20;7.90;;;;;;;7.82;100.00;101205.34;10208707;28;20049;-69
2023/02/20 16:55:26;;;;;;;9.10;8.00;;;;;;;7.80;100.00;101230.94;10217821;28;20602;-69
2023/02/20 17:00:35;;;;;;;9.55;8.27;;;;;;;7.78;100.00;101226.88;10207124;28;20046;-69
2023/02/20 17:05:40;;;;;;;12.07;6.88;;;;;;;7.76;100.00;101219.00;10213974;28;20061;-69
2023/02/20 17:10:36;;;;;;;14.70;7.55;;;;;;;7.77;100.00;101227.97;10219177;28;20125;-68
2023/02/20 17:15:33;;;;;;;10.15;7.20;;;;;;;7.77;100.00;101242.41;10217175;28;20582;-69
2023/02/20 17:20:32;;;;;;;12.15;7.07;;;;;;;7.75;100.00;101238.34;10217732;28;20061;-69
2023/02/20 17:25:29;;;;;;;7.40;6.13;;;;;;;7.75;100.00;101243.78;10221044;28;20616;-69
2023/02/20 17:30:25;;;;;;;10.93;6.50;;;;;;;7.73;100.00;101256.88;10215216;28;20053;-69
2023/02/20 17:35:22;;;;;;;7.68;6.50;;;;;;;7.74;100.00;101247.59;10199079;28;21209;-69
2023/02/20 17:40:19;;;;;;;6.15;5.55;;;;;;;7.74;100.00;101237.53;10215916;28;20053;-69
2023/02/20 17:45:16;;;;;;;7.78;7.07;;;;;;;7.74;100.00;101245.69;10217476;28;20064;-69
2023/02/20 17:50:16;;;;;;;7.25;6.00;;;;;;;7.73;100.00;101244.09;10204449;28;20050;-68
2023/02/20 17:55:18;;;;;;;7.30;6.60;;;;;;;7.73;100.00;101249.53;10213428;28;20045;-68
2023/02/20 18:00:16;;;;;;;8.97;6.70;;;;;;;7.73;100.00;101246.81;10202954;28;20081;-68
2023/02/20 18:05:13;;;;;;;8.00;7.05;;;;;;;7.73;100.00;101257.69;10210461;28;20060;-68
2023/02/20 18:10:10;;;;;;;11.02;6.90;;;;;;;7.72;100.00;101250.59;10219200;28;20133;-68
2023/02/20 18:15:07;;;;;;;10.95;6.60;;;;;;;7.69;100.00;101245.75;10214481;28;20054;-68
2023/02/20 18:20:03;;;;;;;15.45;7.93;;;;;;;7.74;100.00;101247.59;10203700;28;20136;-68
2023/02/20 18:25:00;;;;;;;15.75;9.73;;;;;;;7.77;100.00;101247.88;10205956;28;20049;-69
2023/02/20 18:29:56;;;;;;;21.48;10.27;;;;;;;7.75;100.00;101266.38;10201049;28;20735;-69
2023/02/20 18:34:53;;;;;;;15.35;9.20;;;;;;;7.73;100.00;101246.81;10214630;28;20080;-68
2023/02/20 18:39:49;;;;;;;15.98;10.02;;;;;;;7.74;100.00;101259.31;10218386;28;20066;-69
2023/02/20 18:44:47;;;;;;;17.92;9.75;;;;;;;7.73;100.00;101246.81;10213928;28;20411;-69
2023/02/20 18:49:46;;;;;;;17.25;9.40;;;;;;;7.74;100.00;101247.59;10208173;28;20042;-69
2023/02/20 18:54:42;;;;;;;18.90;9.07;;;;;;;7.74;100.00;101251.13;10216311;28;20058;-68
2023/02/20 18:59:41;;;;;;;20.38;8.60;;;;;;;7.75;100.00;101243.78;10200806;28;20563;-68
2023/02/20 19:04:37;;;;;;;23.67;8.75;;;;;;;7.75;100.00;101254.66;10204339;28;20176;-68
2023/02/20 19:09:36;;;;;;;19.85;9.90;;;;;;;7.74;100.00;101259.31;10222449;28;20038;-68
2023/02/20 19:14:34;;;;;;;27.55;10.90;;;;;;;7.76;100.00;101268.00;10217882;28;20491;-68
2023/02/20 19:19:30;;;;;;;23.30;10.10;;;;;;;7.76;100.00;101257.13;10211182;28;20060;-69
2023/02/20 19:24:27;;;;;;;17.90;8.70;;;;;;;7.75;100.00;101266.38;10216926;28;20045;-69
2023/02/20 19:29:23;;;;;;;17.13;8.30;;;;;;;7.77;100.00;101274.25;10218911;28;20120;-68
2023/02/20 19:34:19;;;;;;;14.93;7.75;;;;;;;7.77;100.00;101247.88;10221400;28;20487;-68
2023/02/20 19:39:16;;;;;;;17.25;7.95;;;;;;;7.82;100.00;101265.22;10228734;28;20072;-67
2023/02/20 19:44:14;;;;;;;14.00;8.18;;;;;;;7.80;100.00;101260.91;10212403;28;20046;-68
2023/02/20 19:49:11;;;;;;;18.13;7.75;;;;;;;7.78;100.00;101244.03;10210259;28;20037;-68
2023/02/20 19:54:08;;;;;;;18.65;8.93;;;;;;;7.80;100.00;101257.38;10214283;28;20057;-68
2023/02/20 19:59:04;;;;;;;16.95;7.47;;;;;;;7.82;100.00;101248.88;10207482;28;20057;-68
2023/02/20 20:04:01;;;;;;;16.65;7.63;;;;;;;7.83;100.00;101251.34;10217891;28;20045;-68
2023/02/20 20:08:59;;;;;;;13.38;6.88;;;;;;;7.82;100.00;101249.72;10222780;28;20084;-68
2023/02/20 20:14:12;;;;;;;14.65;7.25;;;;;;;7.86;100.00;101260.84;10211377;28;20042;-68
2023/02/20 20:19:09;;;;;;;15.40;7.60;;;;;;;7.83;100.00;101245.91;10214165;28;20128;-68
2023/02/20 20:24:09;;;;;;;10.25;6.65;;;;;;;7.85;100.00;101253.78;10212077;28;20072;-68
2023/02/20 20:29:06;;;;;;;11.50;7.05;;;;;;;7.85;100.00;101249.16;10220135;28;20630;-68
2023/02/20 20:34:04;;;;;;;10.38;6.75;;;;;;;7.86;100.00;101255.41;10229493;28;20056;-68
2023/02/20 20:39:02;;;;;;;8.35;6.80;;;;;;;7.84;100.00;101252.16;10215886;28;20049;-68
2023/02/20 20:44:03;;;;;;;9.88;6.88;;;;;;;7.86;100.00;101255.41;10221413;28;20092;-68
2023/02/20 20:49:01;;;;;;;14.02;6.25;;;;;;;7.85;100.00;101267.41;10219925;28;20049;-68
2023/02/20 20:53:58;;;;;;;15.60;6.97;;;;;;;7.87;100.00;101246.16;10216539;28;20069;-68
2023/02/20 20:58:55;;;;;;;17.60;7.72;;;;;;;7.88;100.00;101259.44;10223613;28;20041;-68
2023/02/20 21:03:51;;;;;;;8.27;6.88;;;;;;;7.87;100.00;101265.22;10219011;28;20042;-68
2023/02/20 21:08:48;;;;;;;10.48;6.35;;;;;;;7.87;100.00;101262.47;10215923;28;20083;-68
2023/02/20 21:13:47;;;;;;;12.30;6.05;;;;;;;7.87;100.00;101257.03;10219740;28;20057;-68
2023/02/20 21:18:45;;;;;;;10.63;6.35;;;;;;;7.86;100.00;101263.56;10215798;28;20042;-69
2023/02/20 21:23:44;;;;;;;15.35;6.47;;;;;;;7.85;100.00;101253.78;10213822;28;20046;-69
2023/02/20 21:28:40;;;;;;;13.25;6.50;;;;;;;7.84;100.00;101252.94;10203746;28;20038;-69
2023/02/20 21:33:36;;;;;;;9.23;5.75;;;;;;;7.85;100.00;101253.78;10212618;28;20049;-69
2023/02/20 21:38:33;;;;;;;13.32;7.13;;;;;;;7.82;100.00;101251.63;10219043;28;20479;-68
2023/02/20 21:48:45;;;;;;;13.50;6.22;;;;;;;7.84;100.00;101242.06;10188535;28;20498;-68
2023/02/20 21:53:41;;;;;;;10.93;5.45;;;;;;;7.84;100.00;101246.69;10189809;28;20427;-68
